Time;durP1;ratioP1;P1;durP2;ratioP2;P2;SDS_P1;SDS_P2;PMS_P1;PMS_P2;Temp;Humidity;BMP_temperature;BMP_pressure;BME280_temperature;BME280_humidity;BME280_pressure;Samples;Min_cycle;Max_cycle;Signal;HPM_P1;HPM_P2
2022/05/04 00:00:50;;;;;;;3.63;1.60;;;16.10;58.90;;;;;;5089535;28;20040;-72
2022/05/04 00:03:17;;;;;;;3.75;1.80;;;15.90;54.40;;;;;;5081739;28;20044;-72
2022/05/04 00:05:44;;;;;;;4.20;1.80;;;15.90;58.30;;;;;;5092797;28;20087;-72
2022/05/04 00:08:10;;;;;;;3.45;1.80;;;15.50;58.40;;;;;;5092896;28;20058;-72
2022/05/04 00:10:37;;;;;;;4.30;1.77;;;15.80;58.60;;;;;;5093862;28;20130;-71
2022/05/04 00:13:04;;;;;;;3.72;1.70;;;15.20;58.10;;;;;;5092739;28;20052;-71
2022/05/04 00:15:31;;;;;;;3.17;1.80;;;16.70;59.10;;;;;;5092796;28;20687;-71
2022/05/04 00:17:59;;;;;;;3.85;1.90;;;15.90;58.60;;;;;;5090903;28;20058;-71
2022/05/04 00:20:25;;;;;;;2.92;1.60;;;15.90;54.70;;;;;;5092605;28;20134;-72
2022/05/04 00:22:52;;;;;;;3.65;2.22;;;15.70;58.40;;;;;;5092529;28;20055;-72
2022/05/04 00:25:19;;;;;;;2.80;1.73;;;;;;;;;;5092470;28;20081;-72
2022/05/04 00:27:46;;;;;;;4.63;2.08;;;15.70;57.60;;;;;;5092516;28;20062;-72
2022/05/04 00:30:13;;;;;;;3.30;2.00;;;15.90;58.60;;;;;;5091317;28;20062;-72
2022/05/04 00:32:41;;;;;;;2.72;1.65;;;;;;;;;;5088322;28;20054;-72
2022/05/04 00:35:10;;;;;;;3.22;1.95;;;14.40;50.90;;;;;;5072112;28;20083;-72
2022/05/04 00:37:36;;;;;;;3.13;1.70;;;15.90;58.50;;;;;;5072139;28;20493;-72
2022/05/04 00:40:04;;;;;;;2.90;1.60;;;15.20;57.80;;;;;;5071976;28;20056;-72
2022/05/04 00:42:31;;;;;;;3.38;1.80;;;15.60;58.40;;;;;;5072144;28;20048;-72
2022/05/04 00:44:58;;;;;;;2.92;2.05;;;;;;;;;;5072152;28;20066;-72
2022/05/04 00:47:25;;;;;;;3.75;1.90;;;15.20;57.80;;;;;;5071781;28;20062;-72
2022/05/04 00:49:52;;;;;;;3.35;1.70;;;15.90;58.20;;;;;;5084476;28;20058;-72
2022/05/04 00:52:20;;;;;;;3.20;1.60;;;15.80;58.40;;;;;;5092368;28;20145;-72
2022/05/04 00:54:48;;;;;;;2.47;1.50;;;15.90;58.50;;;;;;5091966;28;20051;-72
2022/05/04 00:57:15;;;;;;;2.47;1.52;;;15.90;54.20;;;;;;5091868;28;20048;-72
2022/05/04 00:59:41;;;;;;;4.32;1.92;;;16.20;58.40;;;;;;5092849;28;20130;-72
2022/05/04 01:02:07;;;;;;;4.05;1.80;;;15.60;58.30;;;;;;5092062;28;20136;-72
2022/05/04 01:04:34;;;;;;;3.33;1.73;;;16.00;58.30;;;;;;5091733;28;20062;-72
2022/05/04 01:07:01;;;;;;;3.42;1.73;;;16.00;58.50;;;;;;5106415;27;20070;-72
2022/05/04 01:09:30;;;;;;;3.72;1.80;;;15.80;58.40;;;;;;5071275;28;20048;-72
2022/05/04 01:11:57;;;;;;;2.47;1.52;;;;;;;;;;5072527;28;20489;-72
2022/05/04 01:14:23;;;;;;;3.40;1.88;;;15.90;58.20;;;;;;5071583;28;20067;-72
2022/05/04 01:16:51;;;;;;;3.35;1.70;;;15.90;58.10;;;;;;5071260;28;20413;-72
2022/05/04 01:19:18;;;;;;;2.83;2.08;;;15.90;58.10;;;;;;5072309;28;20489;-72
2022/05/04 01:21:49;;;;;;;3.20;1.90;;;15.30;57.70;;;;;;5077199;28;20052;-72
2022/05/04 01:24:16;;;;;;;2.42;1.52;;;16.00;58.50;;;;;;5090111;28;20060;-71
2022/05/04 01:26:42;;;;;;;2.83;1.70;;;15.90;56.00;;;;;;5092338;28;20054;-71
2022/05/04 01:29:09;;;;;;;3.00;1.80;;;15.90;58.30;;;;;;5091481;28;20052;-71
2022/05/04 01:31:36;;;;;;;2.97;1.80;;;15.50;58.00;;;;;;5090718;28;20052;-71
2022/05/04 01:34:02;;;;;;;3.17;1.70;;;15.90;58.20;;;;;;5092702;28;20059;-71
2022/05/04 01:36:29;;;;;;;4.10;1.88;;;;;;;;;;5091369;28;20052;-71
2022/05/04 01:38:57;;;;;;;3.25;1.77;;;15.90;51.80;;;;;;5074591;28;20052;-71
2022/05/04 01:44:08;;;;;;;3.15;1.65;;;16.00;58.20;;;;;;5104991;28;20049;-71
2022/05/04 01:46:35;;;;;;;4.05;1.73;;;15.90;58.10;;;;;;5070698;28;20051;-71
2022/05/04 01:49:02;;;;;;;3.92;1.75;;;16.00;57.80;;;;;;5070728;28;20083;-71
2022/05/04 01:51:28;;;;;;;3.58;1.80;;;16.10;57.80;;;;;;5070665;28;20057;-71
2022/05/04 01:53:55;;;;;;;2.58;1.60;;;16.00;58.10;;;;;;5071868;28;20055;-71
2022/05/04 01:56:23;;;;;;;3.10;1.77;;;15.70;57.70;;;;;;5071651;28;20405;-71
2022/05/04 01:58:51;;;;;;;3.35;1.70;;;;;;;;;;5071874;28;20044;-71
2022/05/04 02:01:18;;;;;;;3.83;1.85;;;;;;;;;;5070594;28;20417;-71
2022/05/04 02:03:45;;;;;;;4.10;1.70;;;15.50;57.80;;;;;;5070583;28;20511;-71
2022/05/04 02:06:12;;;;;;;2.30;1.52;;;16.10;57.80;;;;;;5070616;28;20048;-71
2022/05/04 02:08:39;;;;;;;3.42;1.67;;;15.90;57.80;;;;;;5070687;28;20152;-71
2022/05/04 02:11:06;;;;;;;3.35;1.75;;;16.10;57.80;;;;;;5072483;28;20464;-71
2022/05/04 02:13:34;;;;;;;3.75;1.60;;;15.20;57.30;;;;;;5070648;28;20060;-71
2022/05/04 02:16:01;;;;;;;2.88;1.60;;;15.90;57.80;;;;;;5071920;28;20142;-71
2022/05/04 02:18:28;;;;;;;2.58;1.80;;;16.50;58.10;;;;;;5071879;28;20045;-71
2022/05/04 02:20:54;;;;;;;2.75;1.58;;;16.00;57.70;;;;;;5071469;28;20059;-71
2022/05/04 02:23:21;;;;;;;3.30;1.60;;;15.30;57.30;;;;;;5071594;28;20508;-71
2022/05/04 02:25:48;;;;;;;2.85;1.55;;;15.50;57.40;;;;;;5071170;28;20052;-71
2022/05/04 02:28:14;;;;;;;2.63;1.60;;;16.00;51.90;;;;;;5070511;28;20048;-71
2022/05/04 02:30:43;;;;;;;2.35;1.30;;;16.10;57.60;;;;;;5071302;28;20131;-71
2022/05/04 02:33:10;;;;;;;3.03;1.60;;;16.20;58.00;;;;;;5070493;28;20056;-71
2022/05/04 02:38:21;;;;;;;2.70;1.50;;;16.90;52.80;;;;;;5104155;28;20135;-71
2022/05/04 02:40:48;;;;;;;3.10;1.40;;;16.00;58.00;;;;;;5070231;28;20048;-71
2022/05/04 02:43:15;;;;;;;2.88;1.60;;;15.70;57.40;;;;;;5071613;28;20058;-72
2022/05/04 02:45:43;;;;;;;3.05;1.60;;;15.60;57.30;;;;;;5070071;28;20055;-71
2022/05/04 02:48:09;;;;;;;2.05;1.50;;;16.10;57.60;;;;;;5070178;28;20060;-71
2022/05/04 02:50:36;;;;;;;2.85;1.50;;;16.00;57.80;;;;;;5069939;28;20116;-71
2022/05/04 02:53:04;;;;;;;3.22;1.63;;;;;;;;;;5073741;28;20061;-72
2022/05/04 02:55:30;;;;;;;2.17;1.45;;;15.40;57.00;;;;;;5074292;28;20053;-72
2022/05/04 02:57:57;;;;;;;2.17;1.70;;;16.70;57.90;;;;;;5074971;28;20048;-72
2022/05/04 03:00:24;;;;;;;3.47;1.90;;;16.00;57.30;;;;;;5073918;28;20058;-72
2022/05/04 03:02:51;;;;;;;2.05;1.50;;;16.20;57.70;;;;;;5075512;28;20072;-72
2022/05/04 03:05:18;;;;;;;4.22;1.60;;;16.20;57.40;;;;;;5074768;28;20098;-72
2022/05/04 03:07:46;;;;;;;2.20;1.50;;;;;;;;;;5073651;28;20504;-71
2022/05/04 03:10:13;;;;;;;2.10;1.45;;;15.80;57.20;;;;;;5073682;28;20053;-72
2022/05/04 03:12:40;;;;;;;3.50;1.73;;;15.60;57.30;;;;;;5074013;28;20084;-72
2022/05/04 03:15:07;;;;;;;3.17;1.60;;;15.80;57.20;;;;;;5074982;28;20119;-72
2022/05/04 03:17:34;;;;;;;3.50;1.58;;;16.20;57.40;;;;;;5107259;27;20055;-72
2022/05/04 03:20:02;;;;;;;3.17;1.55;;;16.00;57.40;;;;;;5073477;28;20140;-72
2022/05/04 03:22:29;;;;;;;3.35;1.40;;;15.70;57.30;;;;;;5073744;28;20060;-72
2022/05/04 03:24:56;;;;;;;2.85;1.42;;;15.90;52.70;;;;;;5073383;28;20049;-72
2022/05/04 03:27:23;;;;;;;2.67;1.40;;;15.40;57.20;;;;;;5073249;28;20052;-72
2022/05/04 03:29:50;;;;;;;2.83;1.42;;;15.70;57.30;;;;;;5075358;28;20405;-71
2022/05/04 03:32:17;;;;;;;1.77;1.30;;;15.50;57.20;;;;;;5073147;28;20131;-71
2022/05/04 03:34:43;;;;;;;2.15;1.40;;;16.20;57.30;;;;;;5073537;28;20056;-71
2022/05/04 03:37:11;;;;;;;3.10;1.58;;;16.20;57.60;;;;;;5073248;28;20059;-72
2022/05/04 03:39:38;;;;;;;2.35;1.50;;;15.10;56.80;;;;;;5073081;28;20052;-71
2022/05/04 03:42:05;;;;;;;3.00;1.60;;;15.90;57.20;;;;;;5074407;28;20045;-71
2022/05/04 03:44:32;;;;;;;3.45;1.52;;;15.20;56.80;;;;;;5073165;28;20064;-71
2022/05/04 03:46:58;;;;;;;1.92;1.23;;;15.60;57.00;;;;;;5107994;27;20044;-71
2022/05/04 03:49:25;;;;;;;3.42;1.77;;;16.10;57.40;;;;;;5073001;28;20067;-71
2022/05/04 03:51:53;;;;;;;3.65;1.55;;;16.30;57.60;;;;;;5074005;28;20074;-71
2022/05/04 03:54:21;;;;;;;3.55;1.63;;;15.70;57.10;;;;;;5073205;28;20233;-71
2022/05/04 03:56:48;;;;;;;2.08;1.40;;;15.50;57.00;;;;;;5073065;28;20056;-71
2022/05/04 03:59:15;;;;;;;2.50;1.40;;;16.00;57.40;;;;;;5074740;28;20146;-72
2022/05/04 04:01:41;;;;;;;2.72;1.50;;;15.40;56.80;;;;;;5092813;28;20067;-71
2022/05/04 04:04:08;;;;;;;1.95;1.40;;;16.30;57.40;;;;;;5093279;28;20056;-71
2022/05/04 04:06:35;;;;;;;3.00;1.40;;;16.00;57.00;;;;;;5092726;28;20048;-72
2022/05/04 04:09:02;;;;;;;2.70;1.83;;;16.00;57.10;;;;;;5092940;28;20497;-71
2022/05/04 04:11:30;;;;;;;3.78;1.52;;;15.50;56.90;;;;;;5093852;28;20052;-71
2022/05/04 04:13:57;;;;;;;3.13;1.40;;;15.30;56.80;;;;;;5116285;27;20053;-71
2022/05/04 04:16:24;;;;;;;3.25;1.60;;;16.40;57.60;;;;;;5072664;28;20057;-71
2022/05/04 04:18:50;;;;;;;3.17;1.33;;;15.80;57.50;;;;;;5072554;28;20054;-71
2022/05/04 04:24:01;;;;;;;2.40;1.50;;;16.10;53.90;;;;;;5106269;28;20048;-71
2022/05/04 04:26:30;;;;;;;2.03;1.40;;;15.90;57.10;;;;;;5072291;28;20052;-71
2022/05/04 04:28:56;;;;;;;2.42;1.40;;;16.10;57.50;;;;;;5073553;28;20048;-71
2022/05/04 04:31:23;;;;;;;2.85;1.40;;;16.10;57.30;;;;;;5072963;28;20707;-71
2022/05/04 04:33:50;;;;;;;3.45;1.63;;;15.60;56.90;;;;;;5072117;28;20057;-72
2022/05/04 04:36:16;;;;;;;2.03;1.40;;;16.50;57.40;;;;;;5073126;28;20131;-71
2022/05/04 04:38:43;;;;;;;3.25;1.58;;;16.10;57.20;;;;;;5072131;28;20060;-71
2022/05/04 04:41:10;;;;;;;2.45;1.40;;;15.50;56.80;;;;;;5071890;28;20055;-72
2022/05/04 04:43:38;;;;;;;2.42;1.27;;;16.00;57.40;;;;;;5073283;28;20044;-71
2022/05/04 04:46:04;;;;;;;2.20;1.40;;;16.10;57.40;;;;;;5072275;28;20060;-70
2022/05/04 04:48:31;;;;;;;3.17;1.42;;;15.90;57.30;;;;;;5071883;28;20052;-71
2022/05/04 04:50:58;;;;;;;2.13;1.45;;;16.10;57.50;;;;;;5072590;28;20051;-71
2022/05/04 04:53:25;;;;;;;2.17;1.50;;;15.20;56.70;;;;;;5071961;28;20062;-72
2022/05/04 04:55:51;;;;;;;3.15;1.40;;;15.70;56.90;;;;;;5072015;28;20059;-72
2022/05/04 04:58:18;;;;;;;2.13;1.50;;;15.40;56.70;;;;;;5071713;28;20051;-71
2022/05/04 05:00:46;;;;;;;3.13;1.42;;;16.10;57.30;;;;;;5072631;28;20409;-71
2022/05/04 05:03:13;;;;;;;3.22;1.50;;;16.20;57.30;;;;;;5073873;28;20044;-71
2022/05/04 05:05:41;;;;;;;3.03;1.40;;;15.30;56.80;;;;;;5071786;28;20438;-71
2022/05/04 05:08:08;;;;;;;3.42;1.40;;;16.10;53.90;;;;;;5071010;28;20067;-71
2022/05/04 05:10:35;;;;;;;2.53;1.40;;;15.90;57.00;;;;;;5071261;28;20080;-71
2022/05/04 05:13:02;;;;;;;2.67;1.33;;;16.30;57.10;;;;;;5071581;28;20060;-71
2022/05/04 05:18:14;;;;;;;2.05;1.40;;;16.00;57.00;;;;;;5106248;28;20056;-71
2022/05/04 05:20:40;;;;;;;2.55;1.60;;;15.20;56.80;;;;;;5091201;28;20056;-71
2022/05/04 05:23:08;;;;;;;3.35;1.50;;;15.70;57.00;;;;;;5091642;28;20485;-71
2022/05/04 05:25:35;;;;;;;2.40;1.10;;;;;;;;;;5091625;28;20114;-72
2022/05/04 05:28:02;;;;;;;1.90;1.30;;;16.00;57.10;;;;;;5091176;28;20131;-71
2022/05/04 05:30:28;;;;;;;3.70;1.50;;;16.30;57.20;;;;;;5091322;28;20075;-71
2022/05/04 05:32:55;;;;;;;2.55;1.40;;;;;;;;;;5091200;28;20390;-71
2022/05/04 05:35:23;;;;;;;2.30;1.33;;;16.10;56.80;;;;;;5084692;28;20490;-71
2022/05/04 05:37:50;;;;;;;2.20;1.50;;;16.10;57.10;;;;;;5072211;28;20051;-71
2022/05/04 05:40:17;;;;;;;3.30;1.50;;;16.20;57.00;;;;;;5071736;28;20055;-71
2022/05/04 05:42:44;;;;;;;3.28;1.20;;;16.10;57.20;;;;;;5071078;28;20139;-71
2022/05/04 05:45:11;;;;;;;1.85;1.30;;;16.00;57.10;;;;;;5072386;28;20052;-71
2022/05/04 05:47:39;;;;;;;1.98;1.30;;;16.60;57.50;;;;;;5071941;28;20052;-71
2022/05/04 05:50:06;;;;;;;3.33;1.45;;;16.10;50.40;;;;;;5070760;28;20084;-71
2022/05/04 05:52:35;;;;;;;1.88;1.25;;;16.20;56.80;;;;;;5123054;27;20416;-71
2022/05/04 05:55:01;;;;;;;2.55;1.35;;;16.10;56.80;;;;;;5091959;28;20059;-71
2022/05/04 05:57:28;;;;;;;2.47;1.30;;;;;;;;;;5092148;28;20461;-71
2022/05/04 05:59:55;;;;;;;2.90;1.35;;;15.40;56.60;;;;;;5090857;28;20055;-71
2022/05/04 06:02:22;;;;;;;3.47;1.48;;;16.30;56.90;;;;;;5091865;28;20052;-71
2022/05/04 06:04:49;;;;;;;1.63;1.10;;;15.40;56.50;;;;;;5090997;28;20051;-71
2022/05/04 06:07:16;;;;;;;2.80;1.35;;;;;;;;;;5089161;28;20090;-71
2022/05/04 06:09:44;;;;;;;2.47;1.48;;;16.10;56.90;;;;;;5091787;28;20382;-71
2022/05/04 06:12:11;;;;;;;2.08;1.30;;;16.10;56.80;;;;;;5090498;28;20058;-71
2022/05/04 06:14:37;;;;;;;2.22;1.20;;;16.10;56.80;;;;;;5091152;28;20062;-71
2022/05/04 06:17:05;;;;;;;2.05;1.55;;;15.90;56.60;;;;;;5125019;27;20059;-71
2022/05/04 06:19:31;;;;;;;2.40;1.60;;;16.30;57.00;;;;;;5125084;27;20058;-72
2022/05/04 06:21:59;;;;;;;1.98;1.27;;;15.40;56.30;;;;;;5091884;28;20048;-72
2022/05/04 06:24:27;;;;;;;2.25;1.40;;;16.20;56.30;;;;;;5095298;28;20059;-72
2022/05/04 06:26:55;;;;;;;1.95;1.45;;;16.30;56.40;;;;;;5100084;28;20079;-72
2022/05/04 06:34:06;;;;;;;2.72;1.88;;;16.30;56.40;;;;;;5101381;28;20489;-72
2022/05/04 06:34:55;;;;;;;3.20;1.55;;;16.30;56.70;;;;;;5071334;28;20052;-71
2022/05/04 06:37:22;;;;;;;2.60;1.30;;;15.50;56.40;;;;;;5104416;28;20463;-72
2022/05/04 06:39:49;;;;;;;5.72;1.60;;;;;;;;;;5101304;28;20044;-72
2022/05/04 06:42:18;;;;;;;3.72;1.70;;;16.60;56.80;;;;;;5127004;27;20044;-72
2022/05/04 06:44:44;;;;;;;2.47;1.30;;;16.40;56.20;;;;;;5101480;28;20393;-72
2022/05/04 06:47:11;;;;;;;3.03;1.48;;;16.90;53.30;;;;;;5097127;28;20385;-72
2022/05/04 06:49:38;;;;;;;2.85;1.27;;;17.30;57.10;;;;;;5105482;28;20047;-72
2022/05/04 06:52:05;;;;;;;2.33;1.30;;;16.50;56.40;;;;;;5107989;28;20416;-72
2022/05/04 06:54:32;;;;;;;2.20;1.20;;;16.40;56.30;;;;;;5107416;28;20051;-72
2022/05/04 06:56:58;;;;;;;2.17;1.40;;;16.50;56.30;;;;;;5106025;28;20047;-72
2022/05/04 06:59:27;;;;;;;4.40;1.58;;;16.60;56.30;;;;;;5103826;28;20536;-72
2022/05/04 07:01:54;;;;;;;2.67;1.30;;;16.80;54.20;;;;;;5114405;28;20622;-72
2022/05/04 07:04:21;;;;;;;3.10;1.50;;;16.50;56.20;;;;;;5114962;28;20058;-72
2022/05/04 07:06:48;;;;;;;2.42;1.50;;;17.00;56.30;;;;;;5114877;28;20066;-71
2022/05/04 07:09:15;;;;;;;1.98;1.15;;;17.00;56.00;;;;;;5114535;28;20051;-72
2022/05/04 07:11:41;;;;;;;2.22;1.40;;;16.40;55.40;;;;;;5095177;28;20055;-73
2022/05/04 07:14:08;;;;;;;4.00;1.30;;;16.70;55.90;;;;;;5074181;28;20408;-72
2022/05/04 07:16:36;;;;;;;2.40;1.30;;;17.00;56.00;;;;;;5107535;28;20134;-72
2022/05/04 07:19:03;;;;;;;4.00;1.25;;;17.50;56.10;;;;;;5093917;28;20052;-72
2022/05/04 07:21:30;;;;;;;2.75;1.23;;;16.90;55.90;;;;;;5093932;28;20138;-72
2022/05/04 07:23:57;;;;;;;3.00;1.45;;;17.10;56.10;;;;;;5094048;28;20055;-71
2022/05/04 07:26:24;;;;;;;1.83;1.30;;;16.90;55.70;;;;;;5094069;28;20055;-71
2022/05/04 07:28:50;;;;;;;1.85;1.33;;;17.60;56.00;;;;;;5102469;28;20053;-71
2022/05/04 07:31:17;;;;;;;2.38;1.38;;;17.10;55.70;;;;;;5073217;28;20058;-72
2022/05/04 07:33:45;;;;;;;2.47;1.40;;;18.00;56.00;;;;;;5091775;28;20044;-72
2022/05/04 07:36:12;;;;;;;2.30;1.13;;;17.50;55.70;;;;;;5093240;28;20176;-72
2022/05/04 07:38:39;;;;;;;1.85;1.20;;;;;;;;;;5093250;28;20054;-72
2022/05/04 07:43:50;;;;;;;2.30;1.38;;;;;;;;;;5127839;27;20052;-72
2022/05/04 07:46:17;;;;;;;3.65;1.30;;;17.50;55.60;;;;;;5091853;28;20052;-72
2022/05/04 07:48:45;;;;;;;3.13;1.42;;;16.30;55.00;;;;;;5094521;28;20056;-71
2022/05/04 07:51:12;;;;;;;2.78;1.77;;;17.80;55.30;;;;;;5093906;28;20390;-71
2022/05/04 07:53:39;;;;;;;1.85;1.20;;;17.40;55.20;;;;;;5093517;28;20408;-71
2022/05/04 07:56:06;;;;;;;2.55;1.42;;;17.50;55.50;;;;;;5093445;28;20077;-71
2022/05/04 07:58:33;;;;;;;2.17;1.30;;;;;;;;;;5093306;28;20094;-71
2022/05/04 08:06:30;;;;;;;2.03;1.20;;;17.70;55.10;;;;;;5099809;28;20044;-71
2022/05/04 08:08:56;;;;;;;3.80;1.42;;;16.80;54.50;;;;;;5111796;28;20047;-71
2022/05/04 08:11:24;;;;;;;3.47;1.20;;;;;;;;;;5108235;28;20047;-71
2022/05/04 08:13:50;;;;;;;2.42;1.42;;;17.70;54.90;;;;;;5103736;28;20055;-71
2022/05/04 08:16:18;;;;;;;2.50;1.17;;;18.40;55.20;;;;;;5100945;28;20398;-71
2022/05/04 08:18:46;;;;;;;2.25;1.40;;;17.80;54.80;;;;;;5102066;28;20043;-71
2022/05/04 08:21:13;;;;;;;2.53;1.27;;;17.90;54.60;;;;;;5122003;27;20048;-71
2022/05/04 08:23:40;;;;;;;2.65;1.30;;;17.80;52.40;;;;;;5103548;28;20052;-72
2022/05/04 08:26:07;;;;;;;1.85;1.20;;;17.50;54.60;;;;;;5098691;28;20055;-72
2022/05/04 08:28:34;;;;;;;2.50;1.30;;;18.10;55.30;;;;;;5094287;28;20043;-72
2022/05/04 08:31:00;;;;;;;3.17;1.50;;;18.10;54.90;;;;;;5092458;28;20400;-72
2022/05/04 08:33:28;;;;;;;3.55;1.55;;;17.80;54.40;;;;;;5081882;28;20136;-72
2022/05/04 08:35:56;;;;;;;2.75;1.20;;;18.10;54.70;;;;;;5072544;28;20075;-72
2022/05/04 08:38:23;;;;;;;2.22;1.35;;;18.70;55.40;;;;;;5072406;28;20050;-70
2022/05/04 08:40:51;;;;;;;2.38;1.30;;;18.50;54.70;;;;;;5072052;28;20060;-72
2022/05/04 08:43:20;;;;;;;2.53;1.30;;;17.90;54.30;;;;;;5079109;28;20056;-72
2022/05/04 08:45:48;;;;;;;2.30;1.40;;;18.00;54.00;;;;;;5076967;28;20063;-72
2022/05/04 08:48:15;;;;;;;2.72;1.27;;;17.60;53.70;;;;;;5072022;28;20072;-72
2022/05/04 08:50:42;;;;;;;2.85;1.42;;;18.10;54.40;;;;;;5070967;28;20056;-71
2022/05/04 08:53:10;;;;;;;2.08;1.50;;;18.30;54.10;;;;;;5085383;28;20048;-71
2022/05/04 08:55:37;;;;;;;3.55;1.30;;;18.30;54.30;;;;;;5124324;27;20047;-70
2022/05/04 08:58:04;;;;;;;1.63;1.17;;;18.60;54.40;;;;;;5089848;28;20481;-71
2022/05/04 09:00:31;;;;;;;5.30;1.50;;;18.30;47.60;;;;;;5116970;27;20055;-72
2022/05/04 09:02:58;;;;;;;5.30;2.22;;;17.30;52.90;;;;;;5092061;28;20058;-72
2022/05/04 09:05:25;;;;;;;2.03;1.25;;;18.40;53.30;;;;;;5091550;28;20055;-71
2022/05/04 09:07:53;;;;;;;5.10;1.63;;;18.30;53.50;;;;;;5091296;28;20048;-72
2022/05/04 09:10:22;;;;;;;2.10;1.30;;;18.50;53.30;;;;;;5089668;28;20048;-72
2022/05/04 09:12:51;;;;;;;2.22;1.40;;;18.40;47.30;;;;;;5071553;28;20087;-71
2022/05/04 09:15:22;;;;;;;3.38;1.27;;;18.50;53.30;;;;;;5072869;28;20048;-72
2022/05/04 09:17:56;;;;;;;2.47;1.48;;;18.30;53.50;;;;;;5071271;28;20048;-72
2022/05/04 09:20:47;;;;;;;2.95;1.40;;;18.30;53.20;;;;;;5105108;28;20481;-70
2022/05/04 09:23:15;;;;;;;3.00;1.50;;;18.00;53.20;;;;;;5071129;28;20049;-70
2022/05/04 09:25:43;;;;;;;3.17;1.65;;;18.30;53.50;;;;;;5085638;28;20052;-70
2022/05/04 09:28:11;;;;;;;3.40;1.48;;;18.00;52.90;;;;;;5087949;28;20060;-70
2022/05/04 09:30:38;;;;;;;1.88;1.38;;;17.50;52.80;;;;;;5089035;28;20059;-70
2022/05/04 09:33:10;;;;;;;2.50;1.38;;;18.30;53.40;;;;;;5091234;28;20095;-71
2022/05/04 09:35:36;;;;;;;2.75;1.60;;;18.40;48.00;;;;;;5092526;28;20048;-70
2022/05/04 09:46:33;;;;;;;2.30;1.30;;;18.90;53.30;;;;;;5125032;27;20530;-70
2022/05/04 09:49:06;;;;;;;3.63;1.55;;;18.50;52.70;;;;;;5091011;28;20050;-71
2022/05/04 09:51:33;;;;;;;2.65;1.35;;;18.70;54.00;;;;;;5090907;28;20056;-71
2022/05/04 09:54:12;;;;;;;3.60;1.90;;;18.40;53.20;;;;;;5090992;28;20543;-71
2022/05/04 09:56:40;;;;;;;4.65;1.85;;;17.90;52.20;;;;;;5092012;28;20405;-71
2022/05/04 09:59:07;;;;;;;2.92;1.55;;;18.40;53.10;;;;;;5084453;28;20048;-71
2022/05/04 10:01:34;;;;;;;4.03;1.50;;;18.50;52.80;;;;;;5104201;28;20052;-71
2022/05/04 10:04:04;;;;;;;5.20;1.80;;;18.10;52.40;;;;;;5069539;28;20060;-70
2022/05/04 10:06:31;;;;;;;4.75;1.45;;;18.50;53.00;;;;;;5073870;28;20044;-71
2022/05/04 10:08:58;;;;;;;3.70;1.52;;;18.80;54.80;;;;;;5090231;28;20481;-72
2022/05/04 10:11:25;;;;;;;2.65;1.40;;;18.60;52.80;;;;;;5090845;28;20412;-71
2022/05/04 10:13:54;;;;;;;2.58;1.73;;;17.70;53.10;;;;;;5090608;28;20048;-71
2022/05/04 10:16:20;;;;;;;4.95;1.50;;;18.10;52.90;;;;;;5089313;28;20067;-71
2022/05/04 10:18:47;;;;;;;3.42;1.42;;;18.70;54.80;;;;;;5090744;28;20059;-71
2022/05/04 10:21:15;;;;;;;1.95;1.40;;;18.60;53.00;;;;;;5090167;28;20056;-71
2022/05/04 10:23:43;;;;;;;3.90;1.70;;;17.20;54.70;;;;;;5090596;28;20103;-71
2022/05/04 10:26:12;;;;;;;2.70;1.48;;;18.80;53.60;;;;;;5090535;28;20048;-70
2022/05/04 10:30:29;;;;;;;2.40;1.40;;;19.30;53.70;;;;;;5090618;28;20439;-71
2022/05/04 10:31:30;;;;;;;4.15;1.30;;;18.40;53.10;;;;;;5090716;28;20420;-71
2022/05/04 10:33:57;;;;;;;4.40;1.33;;;18.50;53.10;;;;;;5090802;28;20060;-70
2022/05/04 10:36:28;;;;;;;4.82;1.45;;;18.50;53.80;;;;;;5090299;28;20051;-70
2022/05/04 10:38:57;;;;;;;2.40;1.50;;;18.70;53.50;;;;;;5090859;28;20138;-70
2022/05/04 10:41:33;;;;;;;3.20;1.40;;;19.10;53.40;;;;;;5090195;28;20058;-70
2022/05/04 10:44:00;;;;;;;3.00;1.30;;;19.20;53.80;;;;;;5091628;28;20059;-70
2022/05/04 10:46:26;;;;;;;1.98;1.30;;;18.40;54.50;;;;;;5090753;28;20424;-70
2022/05/04 10:48:56;;;;;;;3.13;1.30;;;18.70;53.60;;;;;;5072445;28;20123;-70
2022/05/04 10:51:24;;;;;;;4.45;1.75;;;19.30;54.70;;;;;;5071427;28;20052;-70
2022/05/04 10:53:53;;;;;;;2.40;1.30;;;17.70;52.50;;;;;;5071642;28;20052;-71
2022/05/04 10:56:20;;;;;;;4.57;1.40;;;17.90;53.00;;;;;;5087732;28;20055;-71
2022/05/04 10:58:53;;;;;;;2.40;1.60;;;18.60;53.10;;;;;;5091730;28;20055;-71
2022/05/04 11:01:22;;;;;;;3.28;1.27;;;18.60;53.20;;;;;;5091707;28;20141;-71
2022/05/04 11:04:05;;;;;;;2.55;1.38;;;19.40;53.50;;;;;;5088827;28;20044;-72
2022/05/04 11:06:32;;;;;;;2.05;1.40;;;19.20;53.20;;;;;;5089140;28;20501;-70
2022/05/04 11:09:04;;;;;;;2.75;1.27;;;17.90;53.00;;;;;;5091553;28;20449;-71
2022/05/04 11:11:31;;;;;;;2.83;1.38;;;18.40;53.30;;;;;;5091359;28;20055;-70
2022/05/04 11:13:57;;;;;;;2.30;1.30;;;18.50;52.80;;;;;;5100224;28;20055;-71
2022/05/04 11:16:25;;;;;;;2.50;1.30;;;18.70;47.90;;;;;;5105960;28;20050;-71
2022/05/04 11:18:52;;;;;;;1.80;1.10;;;17.80;53.00;;;;;;5102912;28;20054;-71
2022/05/04 11:21:20;;;;;;;1.80;1.42;;;18.80;53.50;;;;;;5100503;28;20065;-71
2022/05/04 11:23:48;;;;;;;4.45;1.42;;;18.80;53.40;;;;;;5103941;28;20518;-71
2022/05/04 11:26:22;;;;;;;4.40;2.00;;;18.40;52.50;;;;;;5103945;28;20055;-71
2022/05/04 11:28:48;;;;;;;1.75;1.25;;;18.60;53.40;;;;;;5099780;28;20040;-70
2022/05/04 11:31:15;;;;;;;2.55;1.40;;;17.70;52.80;;;;;;5098948;28;20065;-70
2022/05/04 11:33:43;;;;;;;1.98;1.30;;;18.70;47.50;;;;;;5108496;28;20059;-70
2022/05/04 11:36:09;;;;;;;2.03;1.20;;;18.80;53.60;;;;;;5102819;28;20059;-70
2022/05/04 11:38:38;;;;;;;2.35;1.35;;;18.70;48.00;;;;;;5101992;28;20048;-70
2022/05/04 11:41:04;;;;;;;3.25;1.67;;;18.60;53.60;;;;;;5093575;28;20052;-70
2022/05/04 11:43:33;;;;;;;2.30;1.30;;;19.00;53.60;;;;;;5094677;28;20048;-70
2022/05/04 11:46:03;;;;;;;1.85;1.27;;;18.70;47.50;;;;;;5092404;28;20052;-70
2022/05/04 11:48:30;;;;;;;3.15;1.38;;;18.60;53.70;;;;;;5093360;28;20058;-70
2022/05/04 11:50:57;;;;;;;2.13;1.27;;;18.10;49.20;;;;;;5093192;28;20067;-70
2022/05/04 11:53:25;;;;;;;4.00;1.40;;;18.50;54.60;;;;;;5091987;28;20134;-70
2022/05/04 11:55:53;;;;;;;3.58;1.38;;;18.50;53.50;;;;;;5094262;28;20127;-69
2022/05/04 11:58:20;;;;;;;2.70;1.30;;;19.20;53.80;;;;;;5094424;28;20562;-70
2022/05/04 12:00:47;;;;;;;2.95;1.33;;;18.70;53.10;;;;;;5100800;28;20047;-70
2022/05/04 12:03:13;;;;;;;2.00;1.30;;;18.90;53.40;;;;;;5102486;28;20044;-70
2022/05/04 12:05:41;;;;;;;3.83;1.52;;;18.70;53.50;;;;;;5103524;28;20118;-69
2022/05/04 12:08:08;;;;;;;3.03;1.50;;;18.90;53.50;;;;;;5105092;28;20415;-71
2022/05/04 12:10:35;;;;;;;3.42;1.58;;;17.70;52.50;;;;;;5103029;28;20052;-70
2022/05/04 12:13:03;;;;;;;2.58;1.23;;;18.70;53.60;;;;;;5102928;28;20083;-70
2022/05/04 12:15:30;;;;;;;3.00;1.48;;;18.60;53.40;;;;;;5101813;28;20052;-70
2022/05/04 12:18:00;;;;;;;2.05;1.17;;;18.70;53.70;;;;;;5102624;28;20051;-70
2022/05/04 12:20:27;;;;;;;2.40;1.23;;;18.60;48.00;;;;;;5105027;28;20700;-70
2022/05/04 12:22:54;;;;;;;2.45;1.25;;;17.70;52.50;;;;;;5101773;28;20083;-70
2022/05/04 12:25:21;;;;;;;2.20;1.20;;;18.80;53.70;;;;;;5098777;28;20051;-70
2022/05/04 12:27:48;;;;;;;2.75;1.10;;;18.50;53.40;;;;;;5103346;28;20134;-70
2022/05/04 12:33:09;;;;;;;;;;;18.60;48.10;;;;;;5113469;28;20055;-70
2022/05/04 12:35:36;;;;;;;2.30;1.30;;;19.30;54.20;;;;;;5113232;28;19942;-71
2022/05/04 12:38:03;;;;;;;2.72;1.38;;;18.60;53.40;;;;;;5112938;28;20047;-70
2022/05/04 12:40:30;;;;;;;3.95;1.25;;;18.50;48.20;;;;;;5112174;28;20051;-71
2022/05/04 12:42:57;;;;;;;3.08;1.30;;;18.10;53.50;;;;;;5077421;28;20082;-71
2022/05/04 12:45:26;;;;;;;2.83;1.50;;;18.70;53.60;;;;;;5071097;28;20057;-70
2022/05/04 12:47:53;;;;;;;1.70;1.30;;;17.50;52.60;;;;;;5071926;28;20044;-71
2022/05/04 12:50:21;;;;;;;2.65;1.30;;;18.40;53.50;;;;;;5071728;28;20071;-70
2022/05/04 12:52:48;;;;;;;3.55;1.73;;;18.50;53.60;;;;;;5105829;28;20060;-70
2022/05/04 12:55:15;;;;;;;2.35;1.40;;;17.40;53.00;;;;;;5073066;28;20074;-70
2022/05/04 12:57:42;;;;;;;3.55;1.50;;;18.50;54.30;;;;;;5073214;28;20054;-71
2022/05/04 13:00:12;;;;;;;2.67;1.40;;;18.90;53.80;;;;;;5071718;28;20052;-68
2022/05/04 13:02:42;;;;;;;3.97;1.25;;;18.60;53.30;;;;;;5071796;28;20056;-70
2022/05/04 13:05:09;;;;;;;7.30;1.40;;;18.30;53.40;;;;;;5072011;28;20044;-70
2022/05/04 13:07:35;;;;;;;3.33;1.52;;;18.60;53.30;;;;;;5071756;28;20059;-68
2022/05/04 13:10:02;;;;;;;7.05;1.50;;;18.50;53.60;;;;;;5071099;28;20061;-68
2022/05/04 13:12:29;;;;;;;8.75;1.80;;;17.50;52.80;;;;;;5071719;28;20056;-69
2022/05/04 13:14:56;;;;;;;6.20;1.92;;;18.40;53.50;;;;;;5106624;27;20054;-70
2022/05/04 13:17:22;;;;;;;12.18;2.58;;;18.70;53.70;;;;;;5071586;28;20052;-70
2022/05/04 13:19:50;;;;;;;8.23;2.28;;;18.60;53.70;;;;;;5071124;28;20048;-69
2022/05/04 13:22:17;;;;;;;11.07;2.35;;;18.50;48.20;;;;;;5071615;28;20052;-69
2022/05/04 13:24:44;;;;;;;10.35;2.20;;;18.50;48.20;;;;;;5071197;28;20052;-69
2022/05/04 13:27:11;;;;;;;8.07;2.20;;;18.40;54.50;;;;;;5072497;28;20459;-69